createdAt,value
2019-04-26T00:01:47.975Z,99066.27
2019-04-26T00:04:18.296Z,99073.87
2019-04-26T00:06:48.738Z,99078.69
2019-04-26T00:09:24.849Z,99082.39
2019-04-26T00:12:05.390Z,99082.48
2019-04-26T00:14:49.808Z,99088.69
2019-04-26T00:17:26.594Z,99093.36
2019-04-26T00:19:56.032Z,99095.27
2019-04-26T00:22:25.604Z,99090.91
2019-04-26T00:24:55.252Z,99085.14
2019-04-26T00:27:24.373Z,99081.38
2019-04-26T00:29:53.576Z,99080.25
2019-04-26T00:32:22.723Z,99075.67
2019-04-26T00:34:51.883Z,99072.61
2019-04-26T00:37:21.041Z,99074.84
2019-04-26T00:39:50.262Z,99073.07
2019-04-26T00:42:20.589Z,99068.70
2019-04-26T00:44:49.948Z,99066.36
2019-04-26T00:47:21.097Z,99063.55
2019-04-26T00:49:50.695Z,99092.18
2019-04-26T00:52:21.628Z,99117.18
2019-04-26T00:54:50.930Z,99132.37
2019-04-26T00:57:20.771Z,99140.13
2019-04-26T00:59:50.583Z,99146.82
2019-04-26T01:02:26.541Z,99154.25
2019-04-26T01:04:55.682Z,99153.33
2019-04-26T01:07:25.327Z,99147.91
2019-04-26T01:09:54.501Z,99144.02
2019-04-26T01:12:24.012Z,99149.81
2019-04-26T01:14:53.132Z,99165.95
2019-04-26T01:17:22.418Z,99168.66
2019-04-26T01:19:53.421Z,99178.45
2019-04-26T01:22:27.634Z,99180.56
2019-04-26T01:24:57.254Z,99185.16
2019-04-26T01:27:28.824Z,99185.89
2019-04-26T01:30:04.158Z,99179.39
2019-04-26T01:32:34.801Z,99170.89
2019-04-26T01:35:04.264Z,99168.06
2019-04-26T01:37:34.656Z,99165.27
2019-04-26T01:40:09.546Z,99174.09
2019-04-26T01:43:03.052Z,99176.05
2019-04-26T01:45:39.603Z,99172.03
2019-04-26T01:48:31.937Z,99170.02
2019-04-26T01:51:01.118Z,99174.58
2019-04-26T01:53:30.247Z,99175.07
2019-04-26T01:55:59.413Z,99170.52
2019-04-26T01:58:29.569Z,99190.15
2019-04-26T02:01:10.158Z,99194.17
2019-04-26T02:03:39.351Z,99193.58
2019-04-26T02:06:08.565Z,99192.73
2019-04-26T02:08:37.697Z,99180.48
2019-04-26T02:11:06.942Z,99168.25
2019-04-26T02:13:36.066Z,99176.13
2019-04-26T02:16:05.242Z,99186.59
2019-04-26T02:18:34.575Z,99177.53
2019-04-26T02:21:35.803Z,99181.62
2019-04-26T02:24:11.095Z,99185.97
2019-04-26T02:26:42.956Z,99185.64
2019-04-26T02:29:16.104Z,99183.64
2019-04-26T02:31:48.158Z,99180.52
2019-04-26T02:34:17.459Z,99185.95
2019-04-26T02:36:57.191Z,99198.72
2019-04-26T02:39:20.302Z,99199.31
2019-04-26T02:41:52.681Z,99198.14
2019-04-26T02:44:26.674Z,99195.41
2019-04-26T02:47:51.217Z,99191.17
2019-04-26T02:50:31.203Z,99181.27
2019-04-26T02:53:21.020Z,99175.97
2019-04-26T02:56:24.418Z,99183.77
2019-04-26T02:59:34.110Z,99179.86
2019-04-26T03:02:06.657Z,99196.24
2019-04-26T03:04:39.653Z,99186.23
2019-04-26T03:07:18.376Z,99181.97
2019-04-26T03:09:50.868Z,99181.62
2019-04-26T03:12:22.235Z,99180.78
2019-04-26T03:15:13.684Z,99187.86
2019-04-26T03:17:54.785Z,99193.78
2019-04-26T03:20:32.592Z,99181.03
2019-04-26T03:23:45.799Z,99183.27
2019-04-26T03:26:39.516Z,99185.16
2019-04-26T03:29:28.387Z,99182.22
2019-04-26T03:32:49.335Z,99195.31
2019-04-26T03:35:55.315Z,99194.92
2019-04-26T03:38:41.926Z,99184.66
2019-04-26T03:41:27.151Z,99175.44
2019-04-26T03:44:25.965Z,99173.75
2019-04-26T03:46:59.814Z,99178.22
2019-04-26T03:49:54.780Z,99179.52
2019-04-26T03:52:48.434Z,99186.37
2019-04-26T03:56:03.686Z,99183.09
2019-04-26T03:59:00.638Z,99177.06
2019-04-26T04:01:35.404Z,99174.61
2019-04-26T04:04:24.615Z,99170.69
2019-04-26T04:07:03.712Z,99176.70
2019-04-26T04:09:28.625Z,99186.02
2019-04-26T04:12:11.724Z,99180.56
2019-04-26T04:14:59.399Z,99191.73
2019-04-26T04:17:45.405Z,99193.19
2019-04-26T04:20:49.605Z,99199.68
2019-04-26T04:23:34.472Z,99207.87
2019-04-26T04:26:06.944Z,99211.19
2019-04-26T04:28:48.255Z,99205.95
2019-04-26T04:31:24.876Z,99210.47
2019-04-26T04:34:06.463Z,99212.81
2019-04-26T04:36:51.541Z,99231.20
2019-04-26T04:39:35.078Z,99235.61
2019-04-26T04:42:28.552Z,99230.87
2019-04-26T04:45:25.325Z,99221.18
2019-04-26T04:48:38.372Z,99230.27
2019-04-26T04:51:44.876Z,99233.34
2019-04-26T04:54:25.206Z,99238.67
2019-04-26T04:57:13.870Z,99241.63
2019-04-26T05:00:27.444Z,99244.95
2019-04-26T05:03:28.359Z,99237.37
2019-04-26T05:06:21.774Z,99241.16
2019-04-26T05:09:06.615Z,99267.23
2019-04-26T05:11:53.988Z,99281.19
2019-04-26T05:15:13.396Z,99292.61
2019-04-26T05:18:04.119Z,99304.66
2019-04-26T05:20:53.271Z,99316.23
2019-04-26T05:23:51.526Z,99332.97
2019-04-26T05:27:31.724Z,99343.70
2019-04-26T05:31:14.958Z,99338.31
2019-04-26T05:34:35.902Z,99329.41
2019-04-26T05:37:42.415Z,99332.85
2019-04-26T05:41:01.184Z,99338.37
2019-04-26T05:44:16.032Z,99345.00
2019-04-26T05:47:35.974Z,99350.53
2019-04-26T05:51:08.070Z,99358.08
2019-04-26T05:54:42.942Z,99368.23
2019-04-26T05:57:37.008Z,99374.36
2019-04-26T06:00:33.630Z,99370.95
2019-04-26T06:03:33.208Z,99362.13
2019-04-26T06:06:37.646Z,99350.76
2019-04-26T06:09:34.275Z,99353.13
2019-04-26T06:12:32.530Z,99362.22
2019-04-26T06:15:28.956Z,99367.98
2019-04-26T06:18:31.529Z,99376.48
2019-04-26T06:21:13.356Z,99388.18
2019-04-26T06:24:25.973Z,99388.34
2019-04-26T06:27:49.201Z,99393.92
2019-04-26T06:30:26.348Z,99397.58
2019-04-26T06:33:20.644Z,99395.71
2019-04-26T06:35:54.755Z,99411.05
2019-04-26T06:39:19.116Z,99402.98
2019-04-26T06:42:28.530Z,99402.44
2019-04-26T06:45:44.206Z,99397.23
2019-04-26T06:48:28.014Z,99397.16
2019-04-26T06:51:05.029Z,99404.67
2019-04-26T06:54:02.068Z,99401.86
2019-04-26T06:56:50.360Z,99399.22
2019-04-26T07:00:04.468Z,99410.12
2019-04-26T07:02:55.268Z,99421.43
2019-04-26T07:05:29.245Z,99423.17
2019-04-26T07:08:28.090Z,99429.85
2019-04-26T07:12:03.049Z,99421.11
2019-04-26T07:15:05.879Z,99414.31
2019-04-26T07:17:49.222Z,99414.84
2019-04-26T07:20:37.150Z,99402.41
2019-04-26T07:23:54.850Z,99400.81
2019-04-26T07:26:56.761Z,99422.32
2019-04-26T07:30:13.503Z,99436.20
2019-04-26T07:33:20.785Z,99441.64
2019-04-26T07:36:16.467Z,99432.45
2019-04-26T07:39:19.886Z,99440.16
2019-04-26T07:42:16.192Z,99452.31
2019-04-26T07:45:23.843Z,99449.51
2019-04-26T07:48:47.920Z,99449.81
2019-04-26T07:52:02.774Z,99453.20
2019-04-26T07:55:28.332Z,99444.98
2019-04-26T07:58:52.955Z,99446.45
2019-04-26T08:01:56.517Z,99464.48
2019-04-26T08:04:33.764Z,99471.47
2019-04-26T08:07:13.258Z,99470.23
2019-04-26T08:09:59.601Z,99463.32
2019-04-26T08:12:22.762Z,99466.69
2019-04-26T08:15:38.473Z,99479.05
2019-04-26T08:18:34.617Z,99481.36
2019-04-26T08:21:16.815Z,99481.92
2019-04-26T08:24:02.873Z,99483.88
2019-04-26T08:26:35.117Z,99489.27
2019-04-26T08:29:06.869Z,99483.65
2019-04-26T08:31:38.932Z,99488.71
2019-04-26T08:34:12.408Z,99502.28
2019-04-26T08:36:57.265Z,99506.78
2019-04-26T08:39:44.559Z,99513.97
2019-04-26T08:42:03.370Z,99506.78
2019-04-26T08:44:47.195Z,99507.72
2019-04-26T08:47:39.694Z,99501.45
2019-04-26T08:50:38.467Z,99504.31
2019-04-26T08:53:09.634Z,99508.88
2019-04-26T08:55:41.824Z,99506.37
2019-04-26T08:58:13.895Z,99505.35
2019-04-26T09:00:53.126Z,99497.20
2019-04-26T09:03:44.253Z,99507.86
2019-04-26T09:06:37.260Z,99511.28
2019-04-26T09:09:21.967Z,99509.86
2019-04-26T09:11:59.744Z,99509.47
2019-04-26T09:14:27.198Z,99512.67
2019-04-26T09:16:56.560Z,99520.96
2019-04-26T09:19:26.188Z,99531.05
2019-04-26T09:22:15.586Z,99525.72
2019-04-26T09:25:09.749Z,99528.97
2019-04-26T09:27:58.986Z,99533.82
2019-04-26T09:30:38.582Z,99544.63
2019-04-26T09:33:26.162Z,99548.19
2019-04-26T09:35:55.348Z,99556.84
2019-04-26T09:38:24.551Z,99572.06
2019-04-26T09:40:56.290Z,99562.14
2019-04-26T09:43:37.891Z,99574.98
2019-04-26T09:46:26.112Z,99586.56
2019-04-26T09:49:15.921Z,99578.98
2019-04-26T09:51:45.086Z,99571.89
2019-04-26T09:54:15.539Z,99562.67
2019-04-26T09:56:44.707Z,99564.56
2019-04-26T09:59:14.032Z,99570.94
2019-04-26T10:01:43.151Z,99566.46
2019-04-26T10:04:12.482Z,99559.30
2019-04-26T10:06:41.746Z,99543.13
2019-04-26T10:09:17.232Z,99547.41
2019-04-26T10:11:54.062Z,99546.10
2019-04-26T10:14:57.674Z,99548.02
2019-04-26T10:17:31.440Z,99557.90
2019-04-26T10:20:00.601Z,99562.72
2019-04-26T10:22:32.576Z,99564.24
2019-04-26T10:25:02.357Z,99561.89
2019-04-26T10:27:36.085Z,99572.92
2019-04-26T10:30:08.881Z,99569.40
2019-04-26T10:32:35.924Z,99576.86
2019-04-26T10:35:05.346Z,99569.13
2019-04-26T10:37:39.759Z,99567.16
2019-04-26T10:40:06.299Z,99574.77
2019-04-26T10:42:35.468Z,99571.33
2019-04-26T10:45:05.608Z,99579.48
2019-04-26T10:47:38.382Z,99569.55
2019-04-26T10:50:05.938Z,99582.67
2019-04-26T10:52:54.401Z,99576.39
2019-04-26T10:55:41.350Z,99573.20
2019-04-26T10:58:16.366Z,99569.69
2019-04-26T11:00:48.360Z,99569.94
2019-04-26T11:03:18.444Z,99571.88
2019-04-26T11:05:49.291Z,99561.11
2019-04-26T11:08:18.818Z,99561.22
2019-04-26T11:10:49.088Z,99562.35
2019-04-26T11:13:18.261Z,99542.61
2019-04-26T11:15:47.739Z,99560.95
2019-04-26T11:18:19.815Z,99553.72
2019-04-26T11:20:47.878Z,99559.41
2019-04-26T11:23:17.050Z,99557.40
2019-04-26T11:25:46.258Z,99563.41
2019-04-26T11:28:17.143Z,99564.34
2019-04-26T11:30:48.054Z,99574.84
2019-04-26T11:33:17.592Z,99577.30
2019-04-26T11:35:46.767Z,99578.94
2019-04-26T11:38:15.962Z,99586.41
2019-04-26T11:40:49.808Z,99589.76
2019-04-26T11:43:19.555Z,99592.71
2019-04-26T11:45:49.343Z,99590.81
2019-04-26T11:48:18.005Z,99586.55
2019-04-26T11:50:48.164Z,99587.75
2019-04-26T11:53:18.132Z,99584.31
2019-04-26T11:55:47.290Z,99589.78
2019-04-26T11:58:17.818Z,99589.06
2019-04-26T12:00:52.324Z,99592.34
2019-04-26T12:03:24.908Z,99595.41
2019-04-26T12:06:02.353Z,99591.77
2019-04-26T12:08:50.458Z,99589.63
2019-04-26T12:11:25.939Z,99586.41
2019-04-26T12:13:50.573Z,99593.59
2019-04-26T12:16:20.478Z,99599.05
2019-04-26T12:18:49.855Z,99596.82
2019-04-26T12:21:19.032Z,99601.33
2019-04-26T12:23:51.419Z,99597.30
2019-04-26T12:26:21.735Z,99598.70
2019-04-26T12:28:50.162Z,99603.13
2019-04-26T12:31:19.346Z,99602.59
2019-04-26T12:33:48.557Z,99608.04
2019-04-26T12:36:17.743Z,99605.56
2019-04-26T12:38:46.887Z,99602.10
2019-04-26T12:41:17.175Z,99611.73
2019-04-26T12:43:47.071Z,99595.48
2019-04-26T12:46:38.324Z,99584.41
2019-04-26T12:49:07.552Z,99580.67
2019-04-26T12:51:38.403Z,99584.81
2019-04-26T12:54:08.227Z,99585.64
2019-04-26T12:56:38.447Z,99589.98
2019-04-26T12:59:07.702Z,99602.06
2019-04-26T13:01:36.952Z,99587.48
2019-04-26T13:04:07.038Z,99585.92
2019-04-26T13:06:43.016Z,99595.16
2019-04-26T13:09:15.651Z,99607.73
2019-04-26T13:12:19.150Z,99607.91
2019-04-26T13:15:05.456Z,99607.08
2019-04-26T13:17:47.333Z,99601.78
2019-04-26T13:20:16.504Z,99607.64
2019-04-26T13:22:46.482Z,99602.95
2019-04-26T13:25:26.216Z,99612.58
2019-04-26T13:27:47.528Z,99608.58
2019-04-26T13:30:16.893Z,99610.05
2019-04-26T13:32:49.305Z,99604.63
2019-04-26T13:35:16.990Z,99606.46
2019-04-26T13:37:46.142Z,99608.70
2019-04-26T13:40:15.676Z,99617.60
2019-04-26T13:42:47.379Z,99619.95
2019-04-26T13:45:40.688Z,99628.62
2019-04-26T13:48:31.807Z,99636.23
2019-04-26T13:51:06.035Z,99649.54
2019-04-26T13:53:35.151Z,99655.86
2019-04-26T13:56:04.331Z,99652.65
2019-04-26T13:58:33.517Z,99651.45
2019-04-26T14:01:04.551Z,99649.57
2019-04-26T14:03:33.747Z,99654.86
2019-04-26T14:06:02.990Z,99662.20
2019-04-26T14:08:32.192Z,99653.30
2019-04-26T14:11:01.352Z,99648.42
2019-04-26T14:13:30.515Z,99654.86
2019-04-26T14:15:59.944Z,99647.44
2019-04-26T14:18:30.312Z,99646.36
2019-04-26T14:21:00.176Z,99641.91
2019-04-26T14:23:45.235Z,99641.91
2019-04-26T14:28:58.118Z,99656.40
2019-04-26T14:31:28.039Z,99655.93
2019-04-26T14:33:57.215Z,99658.72
2019-04-26T14:36:26.897Z,99667.13
2019-04-26T14:39:05.533Z,99666.15
2019-04-26T14:41:27.805Z,99660.94
2019-04-26T14:43:57.878Z,99661.19
2019-04-26T14:46:27.064Z,99657.92
2019-04-26T14:49:02.115Z,99661.30
2019-04-26T14:51:27.154Z,99654.35
2019-04-26T14:53:56.382Z,99656.08
2019-04-26T14:56:29.249Z,99658.16
2019-04-26T14:58:56.490Z,99649.14
2019-04-26T15:01:52.270Z,99649.52
2019-04-26T15:04:48.267Z,99650.15
2019-04-26T15:07:17.404Z,99647.73
2019-04-26T15:09:46.610Z,99633.54
2019-04-26T15:12:15.993Z,99632.17
2019-04-26T15:14:45.543Z,99626.50
2019-04-26T15:17:16.399Z,99624.45
2019-04-26T15:19:47.220Z,99629.91
2019-04-26T15:22:16.577Z,99630.64
2019-04-26T15:24:45.762Z,99636.73
2019-04-26T15:27:15.013Z,99632.42
2019-04-26T15:29:44.155Z,99636.16
2019-04-26T15:32:13.309Z,99627.93
2019-04-26T15:34:42.449Z,99620.13
2019-04-26T15:37:12.876Z,99623.09
2019-04-26T15:39:58.263Z,99626.27
2019-04-26T15:42:42.209Z,99640.34
2019-04-26T15:45:39.024Z,99641.02
2019-04-26T15:48:28.775Z,99643.88
2019-04-26T15:50:58.206Z,99649.83
2019-04-26T15:53:27.386Z,99659.41
2019-04-26T15:55:56.570Z,99654.47
2019-04-26T15:58:26.065Z,99662.39
2019-04-26T16:00:55.316Z,99660.36
2019-04-26T16:03:24.473Z,99661.88
2019-04-26T16:05:53.673Z,99651.64
2019-04-26T16:08:22.948Z,99649.80
2019-04-26T16:10:53.218Z,99657.86
2019-04-26T16:13:24.085Z,99660.52
2019-04-26T16:15:53.712Z,99656.81
2019-04-26T16:18:22.954Z,99662.92
2019-04-26T16:20:53.352Z,99661.50
2019-04-26T16:23:24.164Z,99654.99
2019-04-26T16:25:53.595Z,99654.31
2019-04-26T16:28:33.329Z,99658.47
2019-04-26T16:31:32.207Z,99662.86
2019-04-26T16:34:10.449Z,99661.02
2019-04-26T16:36:36.722Z,99663.65
2019-04-26T16:39:09.242Z,99663.80
2019-04-26T16:41:38.397Z,99662.80
2019-04-26T16:44:07.606Z,99665.46
2019-04-26T16:46:36.725Z,99666.73
2019-04-26T16:49:11.354Z,99667.50
2019-04-26T16:51:37.272Z,99664.73
2019-04-26T16:54:10.253Z,99671.36
2019-04-26T16:56:37.345Z,99673.85
2019-04-26T16:59:06.782Z,99670.73
2019-04-26T17:01:38.105Z,99670.84
2019-04-26T17:04:11.169Z,99675.16
2019-04-26T17:06:44.364Z,99672.30
2019-04-26T17:09:08.950Z,99676.92
2019-04-26T17:11:41.314Z,99670.74
2019-04-26T17:14:10.343Z,99671.93
2019-04-26T17:16:39.998Z,99681.09
2019-04-26T17:19:09.268Z,99676.25
2019-04-26T17:21:45.260Z,99681.89
2019-04-26T17:24:22.956Z,99681.06
2019-04-26T17:26:56.353Z,99678.27
2019-04-26T17:29:25.535Z,99679.00
2019-04-26T17:31:54.700Z,99678.55
2019-04-26T17:34:28.748Z,99675.01
2019-04-26T17:36:54.843Z,99678.82
2019-04-26T17:39:24.037Z,99677.18
2019-04-26T17:41:54.414Z,99683.47
2019-04-26T17:44:26.566Z,99681.33
2019-04-26T17:46:57.046Z,99682.39
2019-04-26T17:49:27.498Z,99684.41
2019-04-26T17:51:58.401Z,99683.13
2019-04-26T17:54:43.729Z,99683.20
2019-04-26T17:56:59.599Z,99684.66
2019-04-26T17:59:34.613Z,99684.02
2019-04-26T18:02:01.068Z,99679.88
2019-04-26T18:04:36.035Z,99687.57
2019-04-26T18:07:06.834Z,99678.81
2019-04-26T18:09:45.853Z,99684.48
2019-04-26T18:12:04.673Z,99688.41
2019-04-26T18:14:33.830Z,99691.02
2019-04-26T18:17:14.222Z,99689.47
2019-04-26T18:19:50.892Z,99689.47
2019-04-26T18:22:45.049Z,99696.55
2019-04-26T18:25:14.831Z,99701.05
2019-04-26T18:27:44.023Z,99704.80
2019-04-26T18:30:14.355Z,99700.78
2019-04-26T18:32:47.851Z,99705.28
2019-04-26T18:35:16.829Z,99706.22
2019-04-26T18:37:45.767Z,99696.28
2019-04-26T18:40:15.067Z,99699.23
2019-04-26T18:42:44.524Z,99698.98
2019-04-26T18:45:14.051Z,99701.48
2019-04-26T18:47:45.055Z,99705.16
2019-04-26T18:50:15.366Z,99708.35
2019-04-26T18:53:03.500Z,99706.45
2019-04-26T18:55:34.382Z,99703.86
2019-04-26T18:58:05.500Z,99698.89
2019-04-26T19:00:37.497Z,99708.22
2019-04-26T19:03:07.022Z,99709.73
2019-04-26T19:05:36.295Z,99708.53
2019-04-26T19:08:07.358Z,99708.77
2019-04-26T19:10:36.925Z,99707.10
2019-04-26T19:13:18.266Z,99717.70
2019-04-26T19:15:54.375Z,99719.80
2019-04-26T19:18:33.973Z,99717.16
2019-04-26T19:21:13.059Z,99715.06
2019-04-26T19:23:42.203Z,99722.12
2019-04-26T19:26:13.782Z,99717.66
2019-04-26T19:28:44.374Z,99721.32
2019-04-26T19:31:13.271Z,99719.89
2019-04-26T19:33:42.886Z,99727.27
2019-04-26T19:36:13.752Z,99723.73
2019-04-26T19:38:43.725Z,99714.07
2019-04-26T19:41:17.339Z,99718.80
2019-04-26T19:43:46.191Z,99716.30
2019-04-26T19:46:32.231Z,99718.06
2019-04-26T19:49:33.452Z,99721.70
2019-04-26T19:52:39.485Z,99725.45
2019-04-26T19:55:28.237Z,99713.81
2019-04-26T19:58:05.816Z,99712.05
2019-04-26T20:00:38.609Z,99724.63
2019-04-26T20:03:08.565Z,99719.11
2019-04-26T20:05:40.434Z,99723.73
2019-04-26T20:08:09.545Z,99721.46
2019-04-26T20:10:40.538Z,99719.37
2019-04-26T20:13:14.978Z,99719.36
2019-04-26T20:15:42.253Z,99716.08
2019-04-26T20:18:12.273Z,99726.00
2019-04-26T20:20:41.631Z,99721.98
2019-04-26T20:23:12.378Z,99726.61
2019-04-26T20:25:41.619Z,99728.36
2019-04-26T20:28:12.194Z,99726.41
2019-04-26T20:30:57.838Z,99723.05
2019-04-26T20:33:30.463Z,99721.73
2019-04-26T20:36:01.450Z,99727.85
2019-04-26T20:38:28.287Z,99727.14
2019-04-26T20:40:57.499Z,99726.41
2019-04-26T20:43:26.896Z,99732.89
2019-04-26T20:46:10.868Z,99739.50
2019-04-26T20:48:30.005Z,99741.11
2019-04-26T20:50:57.953Z,99748.65
2019-04-26T20:53:30.829Z,99742.56
2019-04-26T20:55:58.062Z,99750.66
2019-04-26T20:58:27.265Z,99751.33
2019-04-26T21:00:56.479Z,99751.91
2019-04-26T21:03:27.772Z,99748.89
2019-04-26T21:05:58.971Z,99744.60
2019-04-26T21:08:27.660Z,99746.36
2019-04-26T21:11:00.258Z,99750.13
2019-04-26T21:13:30.574Z,99748.64
2019-04-26T21:16:03.564Z,99758.73
2019-04-26T21:18:33.779Z,99753.77
2019-04-26T21:21:01.500Z,99753.05
2019-04-26T21:23:34.997Z,99747.41
2019-04-26T21:26:17.585Z,99745.27
2019-04-26T21:29:07.315Z,99738.20
2019-04-26T21:31:59.473Z,99736.20
2019-04-26T21:34:34.495Z,99738.53
2019-04-26T21:37:22.176Z,99744.17
2019-04-26T21:40:05.682Z,99743.80
2019-04-26T21:42:34.795Z,99743.18
2019-04-26T21:45:04.465Z,99746.91
2019-04-26T21:47:35.521Z,99757.07
2019-04-26T21:50:04.844Z,99750.25
2019-04-26T21:52:34.376Z,99755.31
2019-04-26T21:55:04.610Z,99762.41
2019-04-26T21:57:34.992Z,99766.68
2019-04-26T22:00:08.020Z,99764.67
2019-04-26T22:02:37.550Z,99768.58
2019-04-26T22:05:08.097Z,99762.09
2019-04-26T22:07:39.494Z,99763.46
2019-04-26T22:10:18.384Z,99761.47
2019-04-26T22:12:47.527Z,99770.54
2019-04-26T22:15:37.509Z,99766.16
2019-04-26T22:18:21.252Z,99768.50
2019-04-26T22:20:55.675Z,99773.39
2019-04-26T22:23:38.978Z,99774.59
2019-04-26T22:26:09.273Z,99777.61
2019-04-26T22:28:38.450Z,99776.06
2019-04-26T22:31:08.618Z,99777.48
2019-04-26T22:33:38.269Z,99779.09
2019-04-26T22:36:07.624Z,99783.47
2019-04-26T22:38:36.819Z,99784.13
2019-04-26T22:41:05.987Z,99792.36
2019-04-26T22:43:55.236Z,99787.41
2019-04-26T22:46:47.327Z,99794.43
2019-04-26T22:49:13.924Z,99793.91
2019-04-26T22:51:43.605Z,99794.43
2019-04-26T22:54:12.862Z,99789.25
2019-04-26T22:56:43.824Z,99792.41
2019-04-26T22:59:13.952Z,99797.02
2019-04-26T23:01:44.796Z,99786.30
2019-04-26T23:04:16.323Z,99789.11
2019-04-26T23:06:47.044Z,99791.31
2019-04-26T23:09:20.451Z,99792.44
2019-04-26T23:11:53.858Z,99788.67
2019-04-26T23:14:36.746Z,99789.14
2019-04-26T23:17:21.054Z,99784.95
2019-04-26T23:19:57.510Z,99783.47
2019-04-26T23:22:30.966Z,99788.11
2019-04-26T23:24:58.151Z,99779.98
2019-04-26T23:27:27.427Z,99778.78
2019-04-26T23:29:58.332Z,99776.38
2019-04-26T23:32:27.695Z,99771.48
2019-04-26T23:34:58.254Z,99761.78
2019-04-26T23:37:29.766Z,99771.41
2019-04-26T23:39:59.163Z,99767.88
2019-04-26T23:42:28.354Z,99767.42
2019-04-26T23:44:57.456Z,99769.09
2019-04-26T23:47:27.189Z,99768.61
2019-04-26T23:49:57.117Z,99764.91
2019-04-26T23:52:26.265Z,99763.16
2019-04-26T23:54:55.423Z,99764.00
2019-04-26T23:57:27.413Z,99761.14
2019-04-26T23:59:59.799Z,99764.00
